Time;durP1;ratioP1;P1;durP2;ratioP2;P2;SDS_P1;SDS_P2;PMS_P1;PMS_P2;Temp;Humidity;BMP_temperature;BMP_pressure;BME280_temperature;BME280_humidity;BME280_pressure;Samples;Min_cycle;Max_cycle;Signal;HPM_P1;HPM_P2
2023/07/22 00:01:59;;;;;;;;;;;28.40;52.20;;;;;;4993693;28;87097;-53
2023/07/22 00:04:25;;;;;;;;;;;28.40;52.20;;;;;;4992081;28;87635;-55
2023/07/22 00:06:51;;;;;;;;;;;28.50;52.30;;;;;;4996730;28;88399;-59
2023/07/22 00:09:17;;;;;;;;;;;28.40;52.30;;;;;;4990706;28;88819;-58
2023/07/22 00:11:42;;;;;;;;;;;28.40;52.30;;;;;;4993251;28;89093;-54
2023/07/22 00:14:09;;;;;;;;;;;28.40;52.40;;;;;;4989419;28;87103;-58
2023/07/22 00:16:34;;;;;;;;;;;28.40;52.40;;;;;;4994408;28;87867;-53
2023/07/22 00:19:00;;;;;;;;;;;28.40;52.40;;;;;;4991474;28;88106;-57
2023/07/22 00:21:26;;;;;;;;;;;28.40;52.50;;;;;;4992689;28;87208;-59
2023/07/22 00:23:51;;;;;;;;;;;28.40;52.50;;;;;;4991673;28;87973;-58
2023/07/22 00:26:17;;;;;;;;;;;28.30;52.50;;;;;;4991011;28;87190;-55
2023/07/22 00:28:43;;;;;;;;;;;28.30;52.50;;;;;;4989431;28;87179;-55
2023/07/22 00:31:09;;;;;;;;;;;28.30;52.50;;;;;;4991339;28;89216;-55
2023/07/22 00:33:34;;;;;;;;;;;28.30;52.50;;;;;;4993582;28;87117;-59
2023/07/22 00:36:00;;;;;;;;;;;28.30;52.60;;;;;;4991126;28;87033;-53
2023/07/22 00:38:25;;;;;;;;;;;28.30;52.60;;;;;;4993158;28;88175;-54
2023/07/22 00:40:50;;;;;;;;;;;28.20;52.70;;;;;;4992077;28;86444;-56
2023/07/22 00:43:16;;;;;;;;;;;28.20;52.70;;;;;;4990051;28;87092;-55
2023/07/22 00:45:41;;;;;;;;;;;28.20;52.60;;;;;;4993582;28;88170;-55
2023/07/22 00:48:08;;;;;;;;;;;28.20;52.60;;;;;;4993518;28;88128;-59
2023/07/22 00:50:33;;;;;;;;;;;28.20;52.60;;;;;;4991776;28;88444;-55
2023/07/22 00:52:59;;;;;;;;;;;28.20;52.70;;;;;;4991945;28;87152;-55
2023/07/22 00:55:25;;;;;;;;;;;28.20;52.60;;;;;;4991215;28;87948;-58
2023/07/22 00:57:50;;;;;;;;;;;28.20;52.70;;;;;;4991896;28;87187;-58
2023/07/22 01:00:16;;;;;;;;;;;28.20;52.70;;;;;;4990977;28;87099;-55
2023/07/22 01:02:42;;;;;;;;;;;28.10;52.70;;;;;;4992689;28;88711;-55
2023/07/22 01:05:10;;;;;;;;;;;28.20;52.80;;;;;;4991187;28;87274;-54
2023/07/22 01:07:35;;;;;;;;;;;28.10;52.80;;;;;;4993577;28;87268;-56
2023/07/22 01:10:01;;;;;;;;;;;28.10;52.70;;;;;;4992800;28;87032;-56
2023/07/22 01:12:26;;;;;;;;;;;28.10;52.80;;;;;;4991336;28;88118;-55
2023/07/22 01:14:52;;;;;;;;;;;28.10;52.70;;;;;;4990136;28;88270;-58
2023/07/22 01:17:18;;;;;;;;;;;28.10;52.80;;;;;;4992570;28;88044;-57
2023/07/22 01:19:44;;;;;;;;;;;28.10;52.80;;;;;;4991041;28;87234;-52
2023/07/22 01:22:10;;;;;;;;;;;28.10;52.90;;;;;;4992406;28;87531;-56
2023/07/22 01:24:36;;;;;;;;;;;28.00;52.70;;;;;;4991316;28;89333;-57
2023/07/22 01:27:03;;;;;;;;;;;28.00;52.80;;;;;;4991178;28;87174;-57
2023/07/22 01:29:28;;;;;;;;;;;28.00;52.90;;;;;;4988967;28;87679;-56
2023/07/22 01:31:54;;;;;;;;;;;28.00;52.80;;;;;;4992990;28;87078;-56
2023/07/22 01:34:21;;;;;;;;;;;28.00;52.80;;;;;;4993278;28;87460;-55
2023/07/22 01:36:50;;;;;;;;;;;27.90;52.80;;;;;;4989040;28;88976;-57
2023/07/22 01:39:16;;;;;;;;;;;28.00;52.80;;;;;;4992357;28;87136;-56
2023/07/22 01:41:41;;;;;;;;;;;27.90;52.80;;;;;;4991612;28;89174;-55
2023/07/22 01:44:07;;;;;;;;;;;27.90;52.80;;;;;;4988863;28;87917;-56
2023/07/22 01:46:33;;;;;;;;;;;27.90;52.80;;;;;;4991414;28;87189;-54
2023/07/22 01:48:59;;;;;;;;;;;27.90;52.80;;;;;;4991165;28;87382;-54
2023/07/22 01:51:25;;;;;;;;;;;27.90;52.90;;;;;;4991202;28;89184;-55
2023/07/22 01:53:51;;;;;;;;;;;27.90;52.90;;;;;;4993701;28;86706;-58
2023/07/22 01:56:16;;;;;;;;;;;27.90;52.80;;;;;;4988378;28;88657;-56
2023/07/22 01:58:42;;;;;;;;;;;27.90;52.80;;;;;;4992830;28;87145;-58
2023/07/22 02:01:08;;;;;;;;;;;27.90;52.90;;;;;;4989289;28;87904;-55
2023/07/22 02:03:33;;;;;;;;;;;27.90;52.90;;;;;;4992690;28;87938;-57
2023/07/22 02:06:03;;;;;;;;;;;27.80;52.90;;;;;;4995911;28;87115;-53
2023/07/22 02:08:28;;;;;;;;;;;27.80;52.90;;;;;;4994068;28;86992;-58
2023/07/22 02:10:54;;;;;;;;;;;27.80;52.90;;;;;;4994299;28;88091;-56
2023/07/22 02:13:19;;;;;;;;;;;27.80;53.00;;;;;;4993882;28;87602;-57
2023/07/22 02:15:45;;;;;;;;;;;27.80;53.00;;;;;;4995885;28;87444;-55
2023/07/22 02:18:10;;;;;;;;;;;27.70;53.00;;;;;;4994174;28;86415;-57
2023/07/22 02:20:36;;;;;;;;;;;27.70;53.00;;;;;;4994806;28;87057;-56
2023/07/22 02:23:01;;;;;;;;;;;27.70;53.10;;;;;;4992456;28;88078;-53
2023/07/22 02:25:27;;;;;;;;;;;27.70;53.20;;;;;;4995112;28;87870;-52
2023/07/22 02:27:52;;;;;;;;;;;27.60;53.00;;;;;;4991747;28;88704;-59
2023/07/22 02:30:19;;;;;;;;;;;27.60;53.00;;;;;;4988339;28;88228;-57
2023/07/22 02:32:44;;;;;;;;;;;27.70;53.10;;;;;;4992498;28;87107;-58
2023/07/22 02:35:10;;;;;;;;;;;27.70;53.10;;;;;;4995139;28;87192;-59
2023/07/22 02:37:37;;;;;;;;;;;27.60;53.10;;;;;;4995648;28;89376;-57
2023/07/22 02:40:07;;;;;;;;;;;27.60;53.10;;;;;;4994046;28;87555;-58
2023/07/22 02:42:34;;;;;;;;;;;27.60;53.30;;;;;;4987902;28;86309;-57
2023/07/22 02:44:59;;;;;;;;;;;27.50;53.20;;;;;;4992940;28;87135;-57
2023/07/22 02:47:25;;;;;;;;;;;27.50;53.20;;;;;;4995269;28;87066;-56
2023/07/22 02:49:50;;;;;;;;;;;27.50;53.70;;;;;;4990787;28;89422;-57
2023/07/22 02:52:16;;;;;;;;;;;27.50;53.20;;;;;;4995449;28;87703;-56
2023/07/22 02:54:41;;;;;;;;;;;27.50;53.20;;;;;;4992148;28;87513;-57
2023/07/22 02:57:07;;;;;;;;;;;27.50;53.20;;;;;;4997172;28;88047;-57
2023/07/22 02:59:33;;;;;;;;;;;27.50;53.20;;;;;;4992628;28;87087;-57
2023/07/22 03:01:58;;;;;;;;;;;27.50;53.20;;;;;;4994366;28;89720;-57
2023/07/22 03:04:24;;;;;;;;;;;27.50;53.20;;;;;;4995534;28;87102;-54
2023/07/22 03:06:49;;;;;;;;;;;27.40;53.20;;;;;;4994012;28;88140;-55
2023/07/22 03:09:15;;;;;;;;;;;27.40;53.20;;;;;;4991500;28;90927;-58
2023/07/22 03:11:40;;;;;;;;;;;27.40;53.20;;;;;;4990860;28;87175;-55
2023/07/22 03:14:06;;;;;;;;;;;27.40;53.20;;;;;;4992502;28;88682;-54
2023/07/22 03:16:32;;;;;;;;;;;27.40;53.30;;;;;;4991295;28;87184;-54
2023/07/22 03:18:57;;;;;;;;;;;27.40;53.20;;;;;;4991411;28;87101;-54
2023/07/22 03:21:23;;;;;;;;;;;27.40;53.40;;;;;;4983650;28;87998;-59
2023/07/22 03:23:49;;;;;;;;;;;27.30;53.20;;;;;;4992425;28;88924;-54
2023/07/22 03:26:14;;;;;;;;;;;27.30;53.20;;;;;;4986686;28;88985;-55
2023/07/22 03:28:41;;;;;;;;;;;27.30;53.20;;;;;;4992732;28;89669;-53
2023/07/22 03:31:08;;;;;;;;;;;27.30;53.30;;;;;;4987171;28;86447;-56
2023/07/22 03:33:34;;;;;;;;;;;27.30;53.20;;;;;;4982996;28;88382;-55
2023/07/22 03:36:00;;;;;;;;;;;27.30;53.40;;;;;;4990476;28;88139;-55
2023/07/22 03:38:25;;;;;;;;;;;27.30;53.40;;;;;;4991529;28;88160;-57
2023/07/22 03:40:53;;;;;;;;;;;27.30;53.30;;;;;;4984882;28;88525;-52
2023/07/22 03:43:18;;;;;;;;;;;27.30;53.40;;;;;;4986108;28;87206;-56
2023/07/22 03:45:44;;;;;;;;;;;27.20;53.40;;;;;;4994399;28;88784;-55
2023/07/22 03:48:09;;;;;;;;;;;27.30;53.40;;;;;;4987688;28;89588;-59
2023/07/22 03:50:35;;;;;;;;;;;27.20;53.30;;;;;;4983288;28;87211;-58
2023/07/22 03:53:01;;;;;;;;;;;27.20;53.40;;;;;;4988056;28;87531;-56
2023/07/22 03:55:26;;;;;;;;;;;27.20;53.40;;;;;;4991530;28;88245;-57
2023/07/22 03:57:52;;;;;;;;;;;27.20;53.40;;;;;;4987745;28;87131;-54
2023/07/22 04:00:18;;;;;;;;;;;27.20;53.40;;;;;;4982361;28;87427;-56
2023/07/22 04:02:43;;;;;;;;;;;27.20;53.50;;;;;;4988997;28;89171;-57
2023/07/22 04:05:09;;;;;;;;;;;27.10;53.40;;;;;;4992922;28;88381;-53
2023/07/22 04:07:34;;;;;;;;;;;27.20;53.50;;;;;;4993666;28;88742;-55
2023/07/22 04:10:00;;;;;;;;;;;27.10;53.50;;;;;;4986307;28;88005;-55
2023/07/22 04:12:25;;;;;;;;;;;27.10;53.40;;;;;;4980412;28;87732;-57
2023/07/22 04:14:51;;;;;;;;;;;27.10;53.50;;;;;;4993610;28;87181;-55
2023/07/22 04:17:16;;;;;;;;;;;27.10;53.50;;;;;;4988266;28;87454;-56
2023/07/22 04:19:44;;;;;;;;;;;27.10;53.50;;;;;;4987425;28;87480;-53
2023/07/22 04:22:10;;;;;;;;;;;27.10;53.50;;;;;;4981963;28;87806;-54
2023/07/22 04:24:35;;;;;;;;;;;27.10;53.60;;;;;;4996422;28;87162;-55
2023/07/22 04:27:01;;;;;;;;;;;27.00;53.60;;;;;;4983720;28;89280;-54
2023/07/22 04:29:26;;;;;;;;;;;27.00;53.60;;;;;;4985744;28;87276;-57
2023/07/22 04:31:56;;;;;;;;;;;27.00;53.60;;;;;;4987815;28;87610;-59
2023/07/22 04:34:22;;;;;;;;;;;27.10;53.60;;;;;;4991039;28;88101;-52
2023/07/22 04:36:47;;;;;;;;;;;27.00;53.60;;;;;;4980504;28;88267;-57
2023/07/22 04:39:13;;;;;;;;;;;27.00;53.60;;;;;;4989317;28;87506;-56
2023/07/22 04:41:38;;;;;;;;;;;27.00;53.60;;;;;;4988324;28;91328;-54
2023/07/22 04:44:04;;;;;;;;;;;27.00;53.70;;;;;;4991758;28;86451;-54
2023/07/22 04:46:30;;;;;;;;;;;27.00;53.70;;;;;;4986247;28;87998;-58
2023/07/22 04:48:56;;;;;;;;;;;27.00;53.70;;;;;;4984694;28;87865;-57
2023/07/22 04:51:22;;;;;;;;;;;26.90;53.70;;;;;;4992672;28;88000;-54
2023/07/22 04:53:47;;;;;;;;;;;26.90;53.70;;;;;;4991993;28;88175;-55
2023/07/22 04:56:13;;;;;;;;;;;26.90;53.60;;;;;;4979143;28;87363;-57
2023/07/22 04:58:38;;;;;;;;;;;26.90;53.60;;;;;;4986380;28;89022;-53
2023/07/22 05:01:04;;;;;;;;;;;26.90;53.70;;;;;;4991720;28;87913;-57
2023/07/22 05:03:29;;;;;;;;;;;26.90;53.80;;;;;;4989390;28;87239;-50
2023/07/22 05:05:55;;;;;;;;;;;26.90;53.70;;;;;;4983579;28;87653;-57
2023/07/22 05:08:20;;;;;;;;;;;26.90;53.90;;;;;;4981322;28;86427;-55
2023/07/22 05:10:46;;;;;;;;;;;26.90;53.90;;;;;;4992172;28;89784;-55
2023/07/22 05:13:11;;;;;;;;;;;26.90;53.80;;;;;;4986356;28;88119;-56
2023/07/22 05:15:37;;;;;;;;;;;26.90;53.90;;;;;;4981113;28;87992;-56
2023/07/22 05:18:02;;;;;;;;;;;26.90;53.80;;;;;;4982165;28;88427;-54
2023/07/22 05:20:28;;;;;;;;;;;26.90;54.40;;;;;;4989780;28;87281;-56
2023/07/22 05:22:55;;;;;;;;;;;26.90;53.80;;;;;;4987309;28;87572;-55
2023/07/22 05:25:20;;;;;;;;;;;26.90;53.90;;;;;;4985585;28;87452;-58
2023/07/22 05:27:46;;;;;;;;;;;26.90;53.90;;;;;;4982829;28;87924;-58
2023/07/22 05:30:11;;;;;;;;;;;26.90;53.90;;;;;;4989588;28;87452;-59
2023/07/22 05:32:37;;;;;;;;;;;26.90;53.90;;;;;;4987876;28;87549;-54
2023/07/22 05:35:04;;;;;;;;;;;26.90;53.90;;;;;;4984315;28;88168;-56
2023/07/22 05:37:30;;;;;;;;;;;26.90;54.00;;;;;;4991797;28;90575;-54
2023/07/22 05:39:55;;;;;;;;;;;26.90;53.90;;;;;;4992689;28;88892;-54
2023/07/22 05:42:21;;;;;;;;;;;26.90;53.90;;;;;;4992045;28;87185;-56
2023/07/22 05:44:47;;;;;;;;;;;26.90;53.90;;;;;;4981453;28;87455;-58
2023/07/22 05:47:13;;;;;;;;;;;26.90;53.90;;;;;;4993068;28;88058;-53
2023/07/22 05:49:38;;;;;;;;;;;26.90;54.00;;;;;;4998839;28;87124;-53
2023/07/22 05:52:04;;;;;;;;;;;26.90;54.00;;;;;;4983113;28;88726;-55
2023/07/22 05:54:29;;;;;;;;;;;26.90;54.00;;;;;;4984842;28;87786;-52
2023/07/22 05:56:55;;;;;;;;;;;26.90;54.00;;;;;;4995071;28;87339;-55
2023/07/22 05:59:20;;;;;;;;;;;27.00;54.10;;;;;;4991307;28;89186;-60
2023/07/22 06:01:46;;;;;;;;;;;26.90;54.10;;;;;;4981045;28;87115;-55
2023/07/22 06:04:12;;;;;;;;;;;26.90;54.10;;;;;;4991107;28;88157;-53
2023/07/22 06:06:37;;;;;;;;;;;26.90;54.10;;;;;;4993542;28;87849;-51
2023/07/22 06:09:02;;;;;;;;;;;26.90;54.20;;;;;;4989383;28;87526;-55
2023/07/22 06:11:28;;;;;;;;;;;26.90;54.20;;;;;;4990391;28;87241;-52
2023/07/22 06:13:54;;;;;;;;;;;26.90;54.20;;;;;;4983958;28;87314;-58
2023/07/22 06:16:19;;;;;;;;;;;26.90;54.20;;;;;;4992922;28;87455;-57
2023/07/22 06:18:45;;;;;;;;;;;26.90;54.30;;;;;;4985554;28;89231;-58
2023/07/22 06:21:10;;;;;;;;;;;26.90;54.30;;;;;;4984942;28;87433;-60
2023/07/22 06:23:36;;;;;;;;;;;26.90;54.30;;;;;;4990297;28;87218;-58
2023/07/22 06:26:02;;;;;;;;;;;26.90;54.30;;;;;;4993127;28;89642;-54
2023/07/22 06:28:28;;;;;;;;;;;26.90;54.40;;;;;;4989387;28;88086;-56
2023/07/22 06:30:53;;;;;;;;;;;26.90;54.50;;;;;;4986344;28;89780;-55
2023/07/22 06:33:18;;;;;;;;;;;26.90;54.50;;;;;;4992883;28;88281;-56
2023/07/22 06:35:44;;;;;;;;;;;26.90;54.50;;;;;;4994699;28;88600;-57
2023/07/22 06:38:09;;;;;;;;;;;26.90;54.60;;;;;;4986997;28;87265;-52
2023/07/22 06:40:35;;;;;;;;;;;26.90;54.50;;;;;;4985481;28;88343;-53
2023/07/22 06:43:00;;;;;;;;;;;26.90;54.60;;;;;;4992632;28;87256;-57
2023/07/22 06:45:26;;;;;;;;;;;26.90;54.70;;;;;;4992034;28;87323;-57
2023/07/22 06:47:51;;;;;;;;;;;26.90;54.60;;;;;;4990704;28;87318;-59
2023/07/22 06:50:17;;;;;;;;;;;26.90;54.70;;;;;;4986198;28;88486;-58
2023/07/22 06:52:42;;;;;;;;;;;27.00;54.80;;;;;;4991223;28;89125;-55
2023/07/22 06:55:08;;;;;;;;;;;26.90;54.70;;;;;;4997831;28;87112;-59
2023/07/22 06:57:33;;;;;;;;;;;27.00;54.80;;;;;;4984200;28;88093;-51
2023/07/22 06:59:59;;;;;;;;;;;27.00;54.80;;;;;;4984240;28;87188;-54
2023/07/22 07:02:25;;;;;;;;;;;26.90;54.80;;;;;;4993903;28;87445;-58
2023/07/22 07:04:51;;;;;;;;;;;26.90;54.90;;;;;;4991240;28;87888;-56
2023/07/22 07:07:16;;;;;;;;;;;26.90;55.00;;;;;;4985309;28;87225;-58
2023/07/22 07:09:42;;;;;;;;;;;26.90;54.90;;;;;;4988295;28;87627;-56
2023/07/22 07:12:08;;;;;;;;;;;26.90;54.90;;;;;;4991899;28;87377;-55
2023/07/22 07:14:33;;;;;;;;;;;26.90;55.00;;;;;;4986408;28;87047;-55
2023/07/22 07:16:59;;;;;;;;;;;26.90;55.00;;;;;;4985734;28;88526;-58
2023/07/22 07:19:24;;;;;;;;;;;27.00;55.00;;;;;;4985135;28;88788;-53
2023/07/22 07:21:50;;;;;;;;;;;27.00;55.00;;;;;;4994477;28;87460;-56
2023/07/22 07:24:16;;;;;;;;;;;27.00;55.10;;;;;;4987356;28;88177;-59
2023/07/22 07:26:41;;;;;;;;;;;27.00;55.10;;;;;;4977439;28;87194;-57
2023/07/22 07:29:07;;;;;;;;;;;27.00;55.10;;;;;;4982336;28;87368;-56
2023/07/22 07:31:33;;;;;;;;;;;27.00;55.10;;;;;;4990557;28;88191;-55
2023/07/22 07:33:58;;;;;;;;;;;27.00;55.10;;;;;;4981045;28;86426;-57
2023/07/22 07:36:24;;;;;;;;;;;27.00;55.70;;;;;;4985277;28;88189;-55
2023/07/22 07:38:49;;;;;;;;;;;27.00;55.20;;;;;;4988664;28;87232;-54
2023/07/22 07:41:15;;;;;;;;;;;27.00;55.10;;;;;;4991409;28;88113;-57
2023/07/22 07:43:41;;;;;;;;;;;27.00;55.10;;;;;;4984668;28;89490;-53
2023/07/22 07:46:21;;;;;;;;;;;27.00;55.20;;;;;;4986744;28;87627;-53
2023/07/22 07:48:47;;;;;;;;;;;27.00;55.10;;;;;;4993003;28;89167;-53
2023/07/22 07:51:14;;;;;;;;;;;27.00;55.20;;;;;;4991858;28;89286;-56
2023/07/22 07:53:40;;;;;;;;;;;27.00;55.10;;;;;;4991388;28;87107;-56
2023/07/22 07:56:06;;;;;;;;;;;27.00;55.20;;;;;;4985245;28;88968;-57
2023/07/22 07:58:32;;;;;;;;;;;27.00;55.10;;;;;;4993890;28;87469;-52
2023/07/22 08:00:57;;;;;;;;;;;27.00;55.20;;;;;;4992773;28;87322;-55
2023/07/22 08:03:23;;;;;;;;;;;27.00;55.20;;;;;;4983603;28;88179;-53
2023/07/22 08:05:48;;;;;;;;;;;27.00;55.20;;;;;;4983789;28;89030;-53
2023/07/22 08:08:14;;;;;;;;;;;27.00;55.20;;;;;;4991834;28;88994;-56
2023/07/22 08:10:40;;;;;;;;;;;27.00;55.20;;;;;;4991095;28;88025;-53
2023/07/22 08:13:06;;;;;;;;;;;27.00;55.20;;;;;;4981731;28;87554;-60
2023/07/22 08:15:31;;;;;;;;;;;27.00;55.20;;;;;;4984834;28;87988;-54
2023/07/22 08:17:57;;;;;;;;;;;27.00;55.20;;;;;;4992345;28;88439;-55
2023/07/22 08:20:22;;;;;;;;;;;27.10;55.30;;;;;;4993264;28;87101;-53
2023/07/22 08:22:48;;;;;;;;;;;27.00;55.20;;;;;;4980536;28;89032;-55
2023/07/22 08:25:13;;;;;;;;;;;27.00;55.20;;;;;;4986813;28;87613;-53
2023/07/22 08:27:39;;;;;;;;;;;27.00;55.30;;;;;;4991227;28;87151;-54
2023/07/22 08:30:04;;;;;;;;;;;27.00;55.20;;;;;;4987920;28;89152;-57
2023/07/22 08:32:30;;;;;;;;;;;27.10;55.40;;;;;;4981170;28;87524;-59
2023/07/22 08:34:55;;;;;;;;;;;27.10;55.40;;;;;;4983801;28;91058;-54
2023/07/22 08:37:21;;;;;;;;;;;27.00;55.30;;;;;;4990782;28;88301;-59
2023/07/22 08:39:47;;;;;;;;;;;27.10;55.40;;;;;;4987066;28;87285;-56
2023/07/22 08:42:14;;;;;;;;;;;27.10;55.40;;;;;;4980406;28;88880;-56
2023/07/22 08:44:43;;;;;;;;;;;27.10;55.40;;;;;;4987692;28;87197;-56
2023/07/22 08:47:10;;;;;;;;;;;27.10;55.40;;;;;;4993362;28;87539;-56
2023/07/22 08:49:35;;;;;;;;;;;27.10;56.00;;;;;;4983892;28;87922;-57
2023/07/22 08:52:01;;;;;;;;;;;27.10;55.40;;;;;;4986430;28;88757;-56
2023/07/22 08:54:27;;;;;;;;;;;27.10;55.40;;;;;;4988811;28;88066;-60
2023/07/22 08:56:53;;;;;;;;;;;27.10;55.40;;;;;;4993418;28;88023;-55
2023/07/22 08:59:19;;;;;;;;;;;27.10;55.40;;;;;;4982871;28;87289;-59
2023/07/22 09:01:45;;;;;;;;;;;27.10;55.40;;;;;;4982777;28;87492;-54
2023/07/22 09:04:10;;;;;;;;;;;27.20;55.40;;;;;;4990928;28;87142;-54
2023/07/22 09:06:36;;;;;;;;;;;27.20;55.50;;;;;;4993041;28;88050;-59
2023/07/22 09:09:06;;;;;;;;;;;27.20;55.50;;;;;;4981509;28;88389;-54
2023/07/22 09:11:33;;;;;;;;;;;27.20;55.40;;;;;;4985166;28;86921;-55
2023/07/22 09:13:59;;;;;;;;;;;27.20;55.50;;;;;;4996832;28;87017;-58
2023/07/22 09:16:26;;;;;;;;;;;27.20;55.40;;;;;;4988820;28;88183;-51
2023/07/22 09:18:54;;;;;;;;;;;27.20;55.40;;;;;;4992063;28;88134;-57
2023/07/22 09:21:20;;;;;;;;;;;27.20;55.40;;;;;;4993818;28;88993;-54
2023/07/22 09:23:45;;;;;;;;;;;27.20;55.40;;;;;;4998268;28;88006;-58
2023/07/22 09:26:14;;;;;;;;;;;27.20;55.40;;;;;;4995751;28;87749;-55
2023/07/22 09:28:56;;;;;;;;;;;27.30;55.40;;;;;;4994682;28;88269;-54
2023/07/22 09:31:22;;;;;;;;;;;27.30;55.50;;;;;;4989768;28;87542;-58
2023/07/22 09:33:48;;;;;;;;;;;27.30;55.40;;;;;;4993963;28;87413;-56
2023/07/22 09:36:13;;;;;;;;;;;27.30;55.40;;;;;;4994208;28;88722;-56
2023/07/22 09:38:39;;;;;;;;;;;27.30;55.40;;;;;;4994584;28;87221;-57
2023/07/22 09:41:04;;;;;;;;;;;27.30;55.40;;;;;;4994829;28;88389;-60
2023/07/22 09:43:30;;;;;;;;;;;27.30;56.00;;;;;;4994209;28;90142;-57
2023/07/22 09:45:56;;;;;;;;;;;27.30;55.40;;;;;;4996669;28;87664;-55
2023/07/22 09:48:22;;;;;;;;;;;27.40;55.40;;;;;;4995226;28;89240;-58
2023/07/22 09:50:57;;;;;;;;;;;27.40;55.40;;;;;;4992504;28;86932;-57
2023/07/22 09:53:22;;;;;;;;;;;27.40;55.40;;;;;;4990840;28;88666;-58
2023/07/22 09:55:52;;;;;;;;;;;27.40;55.40;;;;;;4995344;28;88462;-54
2023/07/22 09:58:17;;;;;;;;;;;27.40;55.40;;;;;;4994095;28;88100;-54
2023/07/22 10:00:47;;;;;;;;;;;27.40;55.40;;;;;;4993761;28;87621;-57
2023/07/22 10:03:15;;;;;;;;;;;27.50;55.40;;;;;;4992884;28;88526;-58
2023/07/22 10:05:41;;;;;;;;;;;27.50;55.40;;;;;;4991427;28;87210;-57
2023/07/22 10:08:08;;;;;;;;;;;27.50;55.40;;;;;;4994954;28;87955;-57
2023/07/22 10:10:38;;;;;;;;;;;27.50;55.40;;;;;;4995848;28;87093;-52
2023/07/22 10:13:04;;;;;;;;;;;27.50;55.40;;;;;;4993950;28;87521;-57
2023/07/22 10:15:30;;;;;;;;;;;27.50;55.40;;;;;;4993334;28;87824;-59
2023/07/22 10:17:56;;;;;;;;;;;27.60;55.40;;;;;;4994790;28;87032;-52
2023/07/22 10:20:23;;;;;;;;;;;27.60;55.40;;;;;;4990430;28;87149;-56
2023/07/22 10:22:49;;;;;;;;;;;27.60;55.40;;;;;;4994904;28;89347;-56
2023/07/22 10:25:16;;;;;;;;;;;27.60;55.40;;;;;;4992780;28;86424;-59
2023/07/22 10:27:41;;;;;;;;;;;27.70;55.40;;;;;;4988471;28;87624;-57
2023/07/22 10:30:11;;;;;;;;;;;27.70;55.40;;;;;;4997852;28;89363;-57
2023/07/22 10:32:45;;;;;;;;;;;27.60;55.40;;;;;;4992122;28;88027;-60
2023/07/22 10:35:11;;;;;;;;;;;27.70;55.40;;;;;;4992135;28;88609;-54
2023/07/22 10:37:38;;;;;;;;;;;27.70;55.40;;;;;;4995158;28;87156;-57
2023/07/22 10:40:22;;;;;;;;;;;27.70;55.40;;;;;;4991471;28;88870;-54
2023/07/22 10:43:06;;;;;;;;;;;27.70;55.40;;;;;;4992501;28;89340;-56
2023/07/22 10:45:33;;;;;;;;;;;27.80;55.40;;;;;;4989753;28;86981;-57
2023/07/22 10:48:09;;;;;;;;;;;27.80;55.40;;;;;;4993288;28;87590;-55
2023/07/22 10:50:42;;;;;;;;;;;27.80;55.40;;;;;;4991600;28;87692;-58
2023/07/22 10:53:11;;;;;;;;;;;27.80;55.40;;;;;;4992590;28;87566;-54
2023/07/22 10:55:55;;;;;;;;;;;27.80;55.40;;;;;;4993503;28;88309;-59
2023/07/22 11:01:28;;;;;;;;;;;27.90;55.40;;;;;;4994164;28;87674;-57
2023/07/22 11:04:03;;;;;;;;;;;27.90;55.40;;;;;;4993537;28;87677;-55
2023/07/22 11:06:29;;;;;;;;;;;27.90;55.40;;;;;;4987468;28;87208;-53
2023/07/22 11:08:55;;;;;;;;;;;27.90;55.40;;;;;;4992744;28;87747;-56
2023/07/22 11:11:20;;;;;;;;;;;27.90;55.40;;;;;;4993705;28;87906;-58
2023/07/22 11:13:46;;;;;;;;;;;27.90;55.40;;;;;;4996372;28;87164;-55
2023/07/22 11:16:12;;;;;;;;;;;28.00;55.40;;;;;;4992438;28;88585;-54
2023/07/22 11:18:38;;;;;;;;;;;28.00;55.40;;;;;;4992536;28;87070;-58
2023/07/22 11:21:08;;;;;;;;;;;28.00;55.30;;;;;;4990795;28;87647;-57
2023/07/22 11:23:34;;;;;;;;;;;28.10;55.40;;;;;;4990272;28;89074;-59
2023/07/22 11:26:01;;;;;;;;;;;28.10;55.40;;;;;;4987654;28;87142;-59
2023/07/22 11:28:27;;;;;;;;;;;28.10;56.00;;;;;;4994256;28;87702;-57
2023/07/22 11:30:53;;;;;;;;;;;28.10;55.30;;;;;;4990871;28;88258;-56
2023/07/22 11:33:18;;;;;;;;;;;28.10;55.30;;;;;;4991477;28;87961;-58
2023/07/22 11:35:44;;;;;;;;;;;28.10;55.30;;;;;;4993838;28;87476;-60
2023/07/22 11:38:11;;;;;;;;;;;28.10;55.30;;;;;;4993119;28;87180;-53
2023/07/22 11:40:37;;;;;;;;;;;28.20;55.30;;;;;;4992537;28;87866;-59
2023/07/22 11:43:02;;;;;;;;;;;28.20;55.30;;;;;;4991635;28;88024;-59
2023/07/22 11:45:28;;;;;;;;;;;28.20;55.30;;;;;;4993738;28;87555;-57
2023/07/22 11:47:54;;;;;;;;;;;28.30;55.40;;;;;;4990096;28;88014;-55
2023/07/22 11:50:30;;;;;;;;;;;28.30;55.30;;;;;;4990499;28;87783;-58
2023/07/22 11:52:55;;;;;;;;;;;28.30;55.30;;;;;;4990173;28;87176;-59
2023/07/22 11:55:23;;;;;;;;;;;28.30;55.30;;;;;;4992921;28;87441;-55
2023/07/22 11:57:55;;;;;;;;;;;28.40;55.30;;;;;;4995378;28;88356;-57
2023/07/22 12:00:21;;;;;;;;;;;28.40;55.30;;;;;;4990969;28;87937;-57
2023/07/22 12:02:47;;;;;;;;;;;28.40;55.20;;;;;;4993319;28;89315;-58
2023/07/22 12:05:20;;;;;;;;;;;28.40;55.30;;;;;;4991436;28;86412;-58
2023/07/22 12:07:45;;;;;;;;;;;28.40;55.30;;;;;;4990458;28;87156;-57
2023/07/22 12:10:11;;;;;;;;;;;28.50;55.30;;;;;;4992049;28;87100;-59
2023/07/22 12:12:38;;;;;;;;;;;28.50;55.20;;;;;;4992332;28;88158;-56
2023/07/22 12:15:04;;;;;;;;;;;28.50;55.20;;;;;;4991722;28;87692;-57
2023/07/22 12:17:29;;;;;;;;;;;28.50;55.20;;;;;;4989737;28;87890;-58
2023/07/22 12:19:55;;;;;;;;;;;28.50;55.20;;;;;;4996386;28;87237;-58
2023/07/22 12:22:20;;;;;;;;;;;28.60;55.30;;;;;;4990178;28;87143;-60
2023/07/22 12:24:49;;;;;;;;;;;28.60;55.20;;;;;;4990754;28;87135;-57
2023/07/22 12:27:15;;;;;;;;;;;28.60;55.20;;;;;;4993306;28;88248;-58
2023/07/22 12:29:40;;;;;;;;;;;28.60;55.10;;;;;;4991875;28;87431;-58
2023/07/22 12:32:06;;;;;;;;;;;28.70;55.20;;;;;;4989667;28;87171;-53
2023/07/22 12:34:32;;;;;;;;;;;28.70;55.20;;;;;;4992098;28;88791;-56
2023/07/22 12:36:57;;;;;;;;;;;28.70;55.20;;;;;;4988657;28;89038;-56
2023/07/22 12:39:23;;;;;;;;;;;28.70;55.10;;;;;;4992967;28;88186;-56
2023/07/22 12:41:48;;;;;;;;;;;28.80;55.20;;;;;;4993729;28;87448;-59
2023/07/22 12:44:14;;;;;;;;;;;28.80;55.10;;;;;;4993413;28;87160;-58
2023/07/22 12:46:39;;;;;;;;;;;28.80;55.10;;;;;;4990246;28;87442;-58
2023/07/22 12:49:05;;;;;;;;;;;28.80;55.10;;;;;;4993591;28;88200;-55
2023/07/22 12:51:31;;;;;;;;;;;28.80;55.10;;;;;;4988502;28;87189;-55
2023/07/22 12:53:56;;;;;;;;;;;28.90;55.10;;;;;;4994265;28;87051;-58
2023/07/22 12:56:22;;;;;;;;;;;28.90;55.20;;;;;;4990134;28;88148;-57
2023/07/22 12:58:47;;;;;;;;;;;28.90;55.10;;;;;;4992325;28;87223;-57
2023/07/22 13:01:13;;;;;;;;;;;28.90;55.00;;;;;;4990567;28;88472;-55
2023/07/22 13:03:38;;;;;;;;;;;29.00;55.10;;;;;;4994219;28;88022;-57
2023/07/22 13:06:04;;;;;;;;;;;29.00;55.10;;;;;;4991936;28;87454;-56
2023/07/22 13:08:30;;;;;;;;;;;29.00;55.10;;;;;;4990187;28;89387;-55
2023/07/22 13:10:55;;;;;;;;;;;29.00;55.00;;;;;;4992032;28;87126;-57
2023/07/22 13:13:21;;;;;;;;;;;29.10;55.00;;;;;;4991037;28;87448;-57
2023/07/22 13:15:46;;;;;;;;;;;29.10;54.90;;;;;;4992713;28;88198;-58
2023/07/22 13:18:13;;;;;;;;;;;29.10;54.90;;;;;;4988601;28;86475;-57
2023/07/22 13:20:39;;;;;;;;;;;29.20;55.00;;;;;;4992649;28;87472;-57
2023/07/22 13:23:04;;;;;;;;;;;29.20;54.80;;;;;;4990390;28;88153;-58
2023/07/22 13:25:30;;;;;;;;;;;29.20;54.70;;;;;;4991723;28;88168;-56
2023/07/22 13:27:56;;;;;;;;;;;29.20;54.40;;;;;;4989681;28;90007;-56
2023/07/22 13:30:22;;;;;;;;;;;29.20;54.70;;;;;;4991512;28;87119;-57
2023/07/22 13:32:47;;;;;;;;;;;29.30;54.50;;;;;;4990301;28;87663;-57
2023/07/22 13:35:13;;;;;;;;;;;29.30;54.30;;;;;;4990869;28;87976;-55
2023/07/22 13:37:38;;;;;;;;;;;29.40;54.20;;;;;;4987865;28;87248;-57
2023/07/22 13:40:09;;;;;;;;;;;29.40;54.10;;;;;;4990607;28;88605;-58
2023/07/22 13:42:35;;;;;;;;;;;29.40;54.20;;;;;;4992143;28;88883;-59
2023/07/22 13:45:02;;;;;;;;;;;29.40;54.30;;;;;;4992828;28;87196;-57
2023/07/22 13:47:27;;;;;;;;;;;29.40;54.30;;;;;;4985065;28;89361;-56
2023/07/22 13:49:53;;;;;;;;;;;29.40;54.30;;;;;;4987851;28;88440;-48
2023/07/22 13:52:18;;;;;;;;;;;29.50;49.80;;;;;;4990288;28;88583;-56
2023/07/22 13:54:45;;;;;;;;;;;29.70;49.80;;;;;;4991771;28;88120;-50
2023/07/22 13:57:12;;;;;;;;;;;29.80;48.00;;;;;;4991791;28;87162;-45
2023/07/22 13:59:37;;;;;;;;;;;29.80;48.60;;;;;;4992907;28;87510;-51
2023/07/22 14:02:03;;;;;;;;;;;29.90;47.70;;;;;;4993015;28;88237;-55
2023/07/22 14:04:29;;;;;;;;;;;30.00;47.20;;;;;;4991525;28;87244;-56
2023/07/22 14:06:54;;;;;;;;;;;30.10;47.70;;;;;;4998398;28;87536;-49
2023/07/22 14:09:19;;;;;;;;;;;30.10;46.80;;;;;;4991442;28;87443;-45
2023/07/22 14:11:45;;;;;;;;;;;30.10;47.80;;;;;;4995066;28;87501;-49
2023/07/22 14:14:10;;;;;;;;;;;30.20;47.30;;;;;;4990808;28;88994;-48